createdAt,value
2018-06-12T00:00:48.451Z,100502.41
2018-06-12T00:03:16.942Z,100498.97
2018-06-12T00:05:45.327Z,100497.10
2018-06-12T00:08:13.736Z,100499.95
2018-06-12T00:10:42.276Z,100497.98
2018-06-12T00:13:10.848Z,100495.16
2018-06-12T00:15:39.358Z,100491.95
2018-06-12T00:18:07.920Z,100487.75
2018-06-12T00:20:36.349Z,100492.07
2018-06-12T00:23:04.877Z,100494.55
2018-06-12T00:25:33.341Z,100485.03
2018-06-12T00:28:01.795Z,100480.59
2018-06-12T00:30:30.218Z,100494.18
2018-06-12T00:32:58.668Z,100487.27
2018-06-12T00:35:27.150Z,100483.33
2018-06-12T00:37:55.665Z,100485.66
2018-06-12T00:40:24.113Z,100481.66
2018-06-12T00:42:52.546Z,100486.09
2018-06-12T00:45:21.024Z,100486.97
2018-06-12T00:47:49.438Z,100478.69
2018-06-12T00:50:17.884Z,100486.11
2018-06-12T00:52:46.337Z,100488.70
2018-06-12T00:55:14.859Z,100486.22
2018-06-12T00:57:43.269Z,100495.36
2018-06-12T01:00:11.747Z,100499.04
2018-06-12T01:02:40.236Z,100499.38
2018-06-12T01:05:08.992Z,100499.14
2018-06-12T01:07:37.407Z,100496.16
2018-06-12T01:10:06.562Z,100494.90
2018-06-12T01:12:35.206Z,100500.23
2018-06-12T01:15:03.663Z,100507.60
2018-06-12T01:17:32.169Z,100507.61
2018-06-12T01:20:01.402Z,100511.18
2018-06-12T01:22:30.224Z,100506.34
2018-06-12T01:24:58.893Z,100513.25
2018-06-12T01:27:27.451Z,100508.42
2018-06-12T01:29:56.016Z,100508.05
2018-06-12T01:32:24.581Z,100507.55
2018-06-12T01:34:53.715Z,100505.33
2018-06-12T01:37:22.648Z,100509.70
2018-06-12T01:39:51.098Z,100503.37
2018-06-12T01:42:19.584Z,100507.08
2018-06-12T01:44:48.061Z,100506.22
2018-06-12T01:47:16.519Z,100509.16
2018-06-12T01:49:45.078Z,100514.04
2018-06-12T01:52:13.561Z,100515.37
2018-06-12T01:54:42.058Z,100510.89
2018-06-12T01:57:10.618Z,100508.03
2018-06-12T01:59:39.092Z,100503.59
2018-06-12T02:02:07.549Z,100512.72
2018-06-12T02:04:36.179Z,100512.34
2018-06-12T02:07:06.567Z,100515.64
2018-06-12T02:09:35.019Z,100517.15
2018-06-12T02:12:03.477Z,100520.08
2018-06-12T02:14:32.280Z,100520.76
2018-06-12T02:17:00.769Z,100523.19
2018-06-12T02:19:29.227Z,100521.07
2018-06-12T02:21:57.883Z,100522.64
2018-06-12T02:24:27.411Z,100517.01
2018-06-12T02:26:56.015Z,100524.23
2018-06-12T02:29:24.519Z,100519.16
2018-06-12T02:31:53.174Z,100523.38
2018-06-12T02:34:21.640Z,100516.85
2018-06-12T02:36:50.312Z,100522.64
2018-06-12T02:39:19.035Z,100519.16
2018-06-12T02:41:47.622Z,100525.56
2018-06-12T02:44:16.099Z,100526.02
2018-06-12T02:46:44.658Z,100531.44
2018-06-12T02:49:13.494Z,100528.94
2018-06-12T02:51:42.009Z,100532.14
2018-06-12T02:54:10.571Z,100535.22
2018-06-12T02:56:39.292Z,100539.22
2018-06-12T02:59:07.839Z,100541.02
2018-06-12T03:01:36.354Z,100541.61
2018-06-12T03:04:04.955Z,100543.05
2018-06-12T03:06:33.629Z,100538.58
2018-06-12T03:09:02.119Z,100536.64
2018-06-12T03:11:30.613Z,100549.41
2018-06-12T03:13:59.110Z,100537.34
2018-06-12T03:16:27.724Z,100539.65
2018-06-12T03:18:56.249Z,100547.04
2018-06-12T03:21:24.729Z,100544.45
2018-06-12T03:23:53.335Z,100547.69
2018-06-12T03:26:21.898Z,100540.44
2018-06-12T03:28:50.367Z,100548.06
2018-06-12T03:31:18.856Z,100548.14
2018-06-12T03:33:47.338Z,100551.91
2018-06-12T03:36:15.864Z,100549.37
2018-06-12T03:38:44.421Z,100552.08
2018-06-12T03:41:12.961Z,100554.20
2018-06-12T03:43:41.399Z,100556.67
2018-06-12T03:46:09.930Z,100549.33
2018-06-12T03:48:38.499Z,100549.13
2018-06-12T03:51:07.733Z,100542.73
2018-06-12T03:53:36.321Z,100546.02
2018-06-12T03:56:05.446Z,100545.16
2018-06-12T03:58:34.110Z,100544.29
2018-06-12T04:01:02.755Z,100546.88
2018-06-12T04:03:31.333Z,100544.17
2018-06-12T04:05:59.912Z,100550.56
2018-06-12T04:08:28.455Z,100549.87
2018-06-12T04:10:57.050Z,100559.46
2018-06-12T04:13:26.136Z,100560.70
2018-06-12T04:15:54.615Z,100557.98
2018-06-12T04:18:23.278Z,100561.02
2018-06-12T04:20:51.831Z,100555.08
2018-06-12T04:23:20.414Z,100559.02
2018-06-12T04:25:48.975Z,100564.95
2018-06-12T04:28:17.528Z,100563.11
2018-06-12T04:30:46.985Z,100563.19
2018-06-12T04:33:15.642Z,100559.50
2018-06-12T04:35:44.910Z,100555.80
2018-06-12T04:38:13.484Z,100555.52
2018-06-12T04:40:42.172Z,100557.83
2018-06-12T04:43:10.757Z,100553.96
2018-06-12T04:45:39.271Z,100552.77
2018-06-12T04:48:07.832Z,100563.27
2018-06-12T04:50:36.321Z,100560.10
2018-06-12T04:53:05.057Z,100563.18
2018-06-12T04:55:33.528Z,100566.75
2018-06-12T04:58:02.055Z,100565.59
2018-06-12T05:00:30.611Z,100572.23
2018-06-12T05:02:59.158Z,100570.72
2018-06-12T05:05:27.741Z,100577.03
2018-06-12T05:07:56.290Z,100572.48
2018-06-12T05:10:24.766Z,100571.41
2018-06-12T05:12:53.355Z,100581.71
2018-06-12T05:15:23.061Z,100584.73
2018-06-12T05:17:51.695Z,100588.96
2018-06-12T05:20:20.346Z,100583.05
2018-06-12T05:22:48.915Z,100581.12
2018-06-12T05:25:17.506Z,100581.05
2018-06-12T05:27:46.228Z,100590.23
2018-06-12T05:30:14.813Z,100588.50
2018-06-12T05:32:43.327Z,100592.14
2018-06-12T05:35:11.873Z,100596.39
2018-06-12T05:37:40.545Z,100603.13
2018-06-12T05:40:09.081Z,100601.13
2018-06-12T05:42:37.598Z,100605.91
2018-06-12T05:45:06.161Z,100605.34
2018-06-12T05:47:34.707Z,100598.73
2018-06-12T05:50:03.297Z,100597.44
2018-06-12T05:52:31.730Z,100601.45
2018-06-12T05:55:00.224Z,100609.02
2018-06-12T05:57:28.665Z,100615.38
2018-06-12T05:59:57.197Z,100615.97
2018-06-12T06:02:25.648Z,100615.94
2018-06-12T06:04:54.148Z,100613.75
2018-06-12T06:07:22.669Z,100616.60
2018-06-12T06:09:51.096Z,100619.45
2018-06-12T06:12:19.616Z,100621.31
2018-06-12T06:14:48.196Z,100618.82
2018-06-12T06:17:16.689Z,100619.52
2018-06-12T06:19:46.110Z,100625.97
2018-06-12T06:22:14.664Z,100629.30
2018-06-12T06:24:43.179Z,100629.09
2018-06-12T06:27:11.677Z,100631.80
2018-06-12T06:29:40.226Z,100629.92
2018-06-12T06:32:08.682Z,100630.19
2018-06-12T06:34:37.114Z,100635.68
2018-06-12T06:37:05.659Z,100633.15
2018-06-12T06:39:34.112Z,100641.84
2018-06-12T06:42:02.559Z,100645.08
2018-06-12T06:44:31.216Z,100640.95
2018-06-12T06:46:59.665Z,100637.61
2018-06-12T06:49:28.076Z,100643.43
2018-06-12T06:51:56.559Z,100648.25
2018-06-12T06:54:25.111Z,100652.69
2018-06-12T06:56:53.620Z,100656.64
2018-06-12T06:59:22.164Z,100656.91
2018-06-12T07:01:50.611Z,100651.33
2018-06-12T07:04:19.022Z,100651.11
2018-06-12T07:06:47.532Z,100654.82
2018-06-12T07:09:16.071Z,100654.97
2018-06-12T07:11:44.508Z,100647.25
2018-06-12T07:14:13.143Z,100659.98
2018-06-12T07:16:41.563Z,100651.09
2018-06-12T07:19:10.113Z,100662.34
2018-06-12T07:21:38.781Z,100660.41
2018-06-12T07:24:07.690Z,100657.03
2018-06-12T07:26:36.692Z,100655.92
2018-06-12T07:29:05.388Z,100659.00
2018-06-12T07:31:33.959Z,100666.98
2018-06-12T07:34:02.486Z,100655.98
2018-06-12T07:36:31.022Z,100657.34
2018-06-12T07:38:59.498Z,100649.57
2018-06-12T07:41:27.959Z,100643.91
2018-06-12T07:43:56.821Z,100653.72
2018-06-12T07:46:25.238Z,100658.71
2018-06-12T07:48:53.632Z,100646.45
2018-06-12T07:51:22.143Z,100653.74
2018-06-12T07:53:50.700Z,100653.61
2018-06-12T07:56:19.881Z,100647.34
2018-06-12T07:58:48.532Z,100646.58
2018-06-12T08:01:17.048Z,100654.40
2018-06-12T08:03:45.525Z,100640.52
2018-06-12T08:06:13.903Z,100637.42
2018-06-12T08:08:43.110Z,100646.34
2018-06-12T08:11:11.963Z,100652.17
2018-06-12T08:13:40.423Z,100647.30
2018-06-12T08:16:08.878Z,100645.31
2018-06-12T08:18:37.367Z,100645.02
2018-06-12T08:21:05.710Z,100643.95
2018-06-12T08:23:34.135Z,100642.75
2018-06-12T08:26:02.540Z,100638.38
2018-06-12T08:28:31.476Z,100642.14
2018-06-12T08:31:00.032Z,100634.69
2018-06-12T08:33:28.461Z,100628.14
2018-06-12T08:35:58.028Z,100634.94
2018-06-12T08:38:26.448Z,100635.59
2018-06-12T08:40:54.858Z,100644.91
2018-06-12T08:43:23.230Z,100639.52
2018-06-12T08:45:51.616Z,100652.02
2018-06-12T08:48:20.308Z,100642.73
2018-06-12T08:50:48.851Z,100644.41
2018-06-12T08:53:17.897Z,100650.44
2018-06-12T08:55:46.361Z,100657.84
2018-06-12T08:58:14.756Z,100651.44
2018-06-12T09:00:43.164Z,100656.87
2018-06-12T09:03:11.633Z,100659.91
2018-06-12T09:05:40.054Z,100658.17
2018-06-12T09:08:08.511Z,100660.73
2018-06-12T09:10:36.947Z,100654.05
2018-06-12T09:13:05.358Z,100655.68
2018-06-12T09:15:33.803Z,100654.80
2018-06-12T09:18:02.244Z,100659.49
2018-06-12T09:20:30.628Z,100656.71
2018-06-12T09:22:59.003Z,100658.27
2018-06-12T09:25:27.388Z,100658.47
2018-06-12T09:27:55.817Z,100644.98
2018-06-12T09:30:24.288Z,100640.53
2018-06-12T09:32:52.732Z,100653.52
2018-06-12T09:35:21.175Z,100646.64
2018-06-12T09:37:49.590Z,100650.65
2018-06-12T09:40:17.985Z,100652.81
2018-06-12T09:42:46.564Z,100650.23
2018-06-12T09:45:15.007Z,100642.73
2018-06-12T09:47:43.474Z,100653.04
2018-06-12T09:50:12.436Z,100637.30
2018-06-12T09:52:40.936Z,100638.13
2018-06-12T09:55:09.373Z,100630.31
2018-06-12T09:57:37.856Z,100634.95
2018-06-12T10:00:07.415Z,100643.02
2018-06-12T10:02:35.942Z,100638.86
2018-06-12T10:05:04.994Z,100624.05
2018-06-12T10:07:33.391Z,100641.10
2018-06-12T10:10:01.768Z,100636.60
2018-06-12T10:12:30.212Z,100636.21
2018-06-12T10:14:58.693Z,100632.12
2018-06-12T10:17:27.147Z,100637.44
2018-06-12T10:19:55.666Z,100635.20
2018-06-12T10:22:24.101Z,100636.74
2018-06-12T10:24:52.606Z,100638.36
2018-06-12T10:27:21.931Z,100634.41
2018-06-12T10:29:50.393Z,100638.02
2018-06-12T10:32:19.611Z,100645.91
2018-06-12T10:34:48.482Z,100650.58
2018-06-12T10:37:16.952Z,100655.84
2018-06-12T10:39:45.361Z,100653.92
2018-06-12T10:42:13.719Z,100651.66
2018-06-12T10:44:42.153Z,100648.59
2018-06-12T10:47:10.561Z,100646.80
2018-06-12T10:49:38.958Z,100654.97
2018-06-12T10:52:07.389Z,100653.33
2018-06-12T10:54:35.857Z,100650.23
2018-06-12T10:57:04.273Z,100652.98
2018-06-12T10:59:32.819Z,100652.15
2018-06-12T11:02:01.229Z,100647.37
2018-06-12T11:04:30.033Z,100645.84
2018-06-12T11:06:58.501Z,100648.23
2018-06-12T11:09:26.977Z,100650.36
2018-06-12T11:11:55.526Z,100645.41
2018-06-12T11:14:33.982Z,100647.99
2018-06-12T11:17:04.879Z,100642.09
2018-06-12T11:19:33.307Z,100630.58
2018-06-12T11:22:01.793Z,100638.51
2018-06-12T11:24:30.322Z,100632.96
2018-06-12T11:26:58.868Z,100636.73
2018-06-12T11:29:28.730Z,100633.44
2018-06-12T11:31:57.309Z,100627.03
2018-06-12T11:34:25.790Z,100630.95
2018-06-12T11:36:54.219Z,100632.70
2018-06-12T11:39:22.582Z,100634.14
2018-06-12T11:41:51.084Z,100632.20
2018-06-12T11:44:20.152Z,100626.22
2018-06-12T11:46:48.564Z,100625.19
2018-06-12T11:49:16.970Z,100619.03
2018-06-12T11:51:45.374Z,100619.57
2018-06-12T11:54:14.049Z,100617.50
2018-06-12T11:56:42.567Z,100622.96
2018-06-12T11:59:11.014Z,100617.59
2018-06-12T12:01:39.525Z,100618.80
2018-06-12T12:04:07.910Z,100615.20
2018-06-12T12:06:36.378Z,100618.02
2018-06-12T12:09:07.789Z,100616.17
2018-06-12T12:11:36.859Z,100612.40
2018-06-12T12:14:05.909Z,100607.60
2018-06-12T12:16:34.854Z,100607.73
2018-06-12T12:19:03.733Z,100605.91
2018-06-12T12:21:32.210Z,100610.88
2018-06-12T12:24:00.634Z,100614.00
2018-06-12T12:26:29.130Z,100612.63
2018-06-12T12:28:57.539Z,100614.27
2018-06-12T12:31:25.980Z,100613.48
2018-06-12T12:33:54.973Z,100616.06
2018-06-12T12:36:23.374Z,100618.14
2018-06-12T12:38:51.885Z,100610.02
2018-06-12T12:41:20.271Z,100605.68
2018-06-12T12:43:49.452Z,100608.91
2018-06-12T12:46:17.860Z,100605.17
2018-06-12T12:48:46.340Z,100603.20
2018-06-12T12:51:14.913Z,100604.84
2018-06-12T12:53:43.361Z,100607.25
2018-06-12T12:56:11.959Z,100611.66
2018-06-12T12:58:40.799Z,100608.75
2018-06-12T13:01:09.191Z,100601.06
2018-06-12T13:03:37.569Z,100610.03
2018-06-12T13:06:06.291Z,100605.52
2018-06-12T13:08:34.736Z,100596.28
2018-06-12T13:11:03.280Z,100595.08
2018-06-12T13:13:32.269Z,100590.73
2018-06-12T13:16:00.800Z,100598.67
2018-06-12T13:18:29.374Z,100601.32
2018-06-12T13:20:58.439Z,100594.78
2018-06-12T13:23:26.905Z,100592.91
2018-06-12T13:25:55.355Z,100599.47
2018-06-12T13:28:23.816Z,100599.11
2018-06-12T13:30:52.303Z,100599.09
2018-06-12T13:33:20.879Z,100597.06
2018-06-12T13:35:49.402Z,100599.52
2018-06-12T13:38:17.829Z,100596.28
2018-06-12T13:40:46.253Z,100590.01
2018-06-12T13:43:14.713Z,100591.88
2018-06-12T13:45:43.854Z,100590.19
2018-06-12T13:48:12.298Z,100584.29
2018-06-12T13:50:40.768Z,100591.66
2018-06-12T13:53:09.235Z,100578.01
2018-06-12T13:55:37.735Z,100582.10
2018-06-12T13:58:06.243Z,100587.53
2018-06-12T14:00:34.706Z,100580.47
2018-06-12T14:03:03.120Z,100582.77
2018-06-12T14:05:31.635Z,100583.88
2018-06-12T14:08:00.991Z,100573.22
2018-06-12T14:10:29.448Z,100581.72
2018-06-12T14:12:58.720Z,100578.91
2018-06-12T14:15:27.306Z,100582.76
2018-06-12T14:17:56.281Z,100582.94
2018-06-12T14:20:24.703Z,100582.91
2018-06-12T14:22:53.269Z,100586.59
2018-06-12T14:25:21.687Z,100589.14
2018-06-12T14:27:50.225Z,100584.73
2018-06-12T14:30:18.693Z,100576.13
2018-06-12T14:32:47.151Z,100574.91
2018-06-12T14:35:15.531Z,100577.05
2018-06-12T14:37:44.369Z,100574.17
2018-06-12T14:40:12.931Z,100571.86
2018-06-12T14:42:41.404Z,100561.27
2018-06-12T14:45:10.411Z,100560.61
2018-06-12T14:47:38.834Z,100553.34
2018-06-12T14:50:07.302Z,100561.61
2018-06-12T14:52:36.205Z,100557.68
2018-06-12T14:55:04.848Z,100557.48
2018-06-12T14:57:33.315Z,100560.91
2018-06-12T15:00:01.801Z,100558.69
2018-06-12T15:02:30.211Z,100555.34
2018-06-12T15:04:58.863Z,100549.72
2018-06-12T15:07:27.308Z,100544.62
2018-06-12T15:09:56.059Z,100546.56
2018-06-12T15:14:52.004Z,100538.75
2018-06-12T15:17:20.450Z,100546.13
2018-06-12T15:19:48.961Z,100540.48
2018-06-12T15:22:17.342Z,100540.52
2018-06-12T15:24:45.822Z,100536.00
2018-06-12T15:27:14.516Z,100537.36
2018-06-12T15:29:42.993Z,100542.39
2018-06-12T15:32:12.215Z,100537.95
2018-06-12T15:34:40.669Z,100537.72
2018-06-12T15:37:09.022Z,100533.97
2018-06-12T15:39:37.470Z,100535.61
2018-06-12T15:42:05.920Z,100531.73
2018-06-12T15:44:34.404Z,100534.47
2018-06-12T15:47:02.849Z,100525.81
2018-06-12T15:49:31.321Z,100527.92
2018-06-12T15:51:59.701Z,100525.46
2018-06-12T15:54:28.115Z,100528.19
2018-06-12T15:56:56.532Z,100524.61
2018-06-12T15:59:25.071Z,100529.58
2018-06-12T16:01:53.495Z,100526.50
2018-06-12T16:04:22.244Z,100527.51
2018-06-12T16:06:51.270Z,100529.08
2018-06-12T16:09:19.694Z,100527.70
2018-06-12T16:11:48.094Z,100523.53
2018-06-12T16:14:16.584Z,100521.47
2018-06-12T16:16:45.784Z,100523.06
2018-06-12T16:19:14.306Z,100514.73
2018-06-12T16:21:42.823Z,100521.77
2018-06-12T16:24:12.586Z,100514.44
2018-06-12T16:26:41.164Z,100523.75
2018-06-12T16:29:09.823Z,100522.22
2018-06-12T16:31:38.368Z,100522.36
2018-06-12T16:34:06.987Z,100523.93
2018-06-12T16:36:35.511Z,100523.73
2018-06-12T16:39:04.559Z,100524.70
2018-06-12T16:41:33.009Z,100520.41
2018-06-12T16:44:02.117Z,100517.77
2018-06-12T16:46:32.187Z,100518.86
2018-06-12T16:49:01.877Z,100515.84
2018-06-12T16:51:30.836Z,100521.17
2018-06-12T16:53:59.340Z,100515.57
2018-06-12T16:56:28.036Z,100522.03
2018-06-12T16:58:56.384Z,100521.67
2018-06-12T17:01:32.579Z,100517.28
2018-06-12T17:04:01.169Z,100513.50
2018-06-12T17:06:29.938Z,100521.12
2018-06-12T17:08:59.369Z,100516.67
2018-06-12T17:11:28.050Z,100518.30
2018-06-12T17:13:56.670Z,100523.73
2018-06-12T17:16:25.274Z,100527.22
2018-06-12T17:18:54.360Z,100528.32
2018-06-12T17:21:22.992Z,100519.48
2018-06-12T17:23:51.983Z,100525.09
2018-06-12T17:26:20.754Z,100529.41
2018-06-12T17:28:49.319Z,100527.75
2018-06-12T17:31:18.369Z,100523.81
2018-06-12T17:33:47.434Z,100526.80
2018-06-12T17:36:16.793Z,100524.25
2018-06-12T17:38:46.339Z,100520.05
2018-06-12T17:41:15.748Z,100522.51
2018-06-12T17:43:44.435Z,100525.86
2018-06-12T17:46:12.917Z,100530.19
2018-06-12T17:48:41.671Z,100535.66
2018-06-12T17:51:10.218Z,100535.04
2018-06-12T17:53:38.826Z,100531.22
2018-06-12T17:56:07.493Z,100529.11
2018-06-12T17:58:39.158Z,100530.77
2018-06-12T18:01:08.408Z,100539.30
2018-06-12T18:03:36.960Z,100529.81
2018-06-12T18:06:05.625Z,100531.30
2018-06-12T18:08:34.177Z,100528.47
2018-06-12T18:11:02.741Z,100537.10
2018-06-12T18:13:31.853Z,100540.23
2018-06-12T18:16:00.363Z,100536.91
2018-06-12T18:18:28.905Z,100541.97
2018-06-12T18:20:57.385Z,100537.03
2018-06-12T18:23:25.765Z,100538.31
2018-06-12T18:25:54.147Z,100536.27
2018-06-12T18:28:22.567Z,100540.11
2018-06-12T18:30:51.046Z,100547.72
2018-06-12T18:33:19.504Z,100547.97
2018-06-12T18:35:47.965Z,100547.86
2018-06-12T18:38:16.367Z,100553.59
2018-06-12T18:40:44.727Z,100553.59
2018-06-12T18:43:13.352Z,100550.44
2018-06-12T18:45:41.809Z,100548.43
2018-06-12T18:48:10.242Z,100553.05
2018-06-12T18:50:38.855Z,100546.48
2018-06-12T18:53:07.405Z,100549.59
2018-06-12T18:55:35.902Z,100550.23
2018-06-12T18:58:04.328Z,100552.09
2018-06-12T19:00:33.759Z,100557.48
2018-06-12T19:03:02.220Z,100554.66
2018-06-12T19:05:30.775Z,100556.78
2018-06-12T19:07:59.215Z,100550.59
2018-06-12T19:10:27.629Z,100557.38
2018-06-12T19:12:56.247Z,100558.05
2018-06-12T19:15:24.696Z,100557.03
2018-06-12T19:17:53.140Z,100565.08
2018-06-12T19:20:21.557Z,100566.92
2018-06-12T19:22:50.136Z,100567.91
2018-06-12T19:25:18.836Z,100566.93
2018-06-12T19:27:47.420Z,100565.44
2018-06-12T19:30:15.968Z,100570.39
2018-06-12T19:32:44.557Z,100577.42
2018-06-12T19:35:13.166Z,100585.58
2018-06-12T19:37:41.680Z,100588.03
2018-06-12T19:40:10.227Z,100590.75
2018-06-12T19:42:38.715Z,100594.83
2018-06-12T19:45:07.334Z,100592.22
2018-06-12T19:47:35.919Z,100585.56
2018-06-12T19:50:04.706Z,100588.25
2018-06-12T19:52:33.879Z,100585.53
2018-06-12T19:55:03.602Z,100592.95
2018-06-12T19:57:32.739Z,100589.94
2018-06-12T20:00:02.810Z,100591.39
2018-06-12T20:02:32.435Z,100589.67
2018-06-12T20:05:00.994Z,100593.11
2018-06-12T20:07:29.590Z,100600.17
2018-06-12T20:09:58.160Z,100600.26
2018-06-12T20:12:27.350Z,100609.85
2018-06-12T20:14:55.966Z,100614.02
2018-06-12T20:17:24.693Z,100614.02
2018-06-12T20:19:54.480Z,100617.95
2018-06-12T20:22:22.932Z,100621.06
2018-06-12T20:24:51.553Z,100623.00
2018-06-12T20:27:20.080Z,100627.84
2018-06-12T20:29:48.910Z,100629.65
2018-06-12T20:32:17.819Z,100633.36
2018-06-12T20:34:46.479Z,100635.94
2018-06-12T20:37:15.338Z,100634.09
2018-06-12T20:39:43.842Z,100628.38
2018-06-12T20:42:12.330Z,100632.45
2018-06-12T20:44:40.882Z,100637.88
2018-06-12T20:47:09.467Z,100640.08
2018-06-12T20:49:37.964Z,100641.41
2018-06-12T20:52:06.538Z,100648.81
2018-06-12T20:54:35.122Z,100652.28
2018-06-12T20:57:03.616Z,100649.80
2018-06-12T20:59:32.117Z,100648.94
2018-06-12T21:02:00.681Z,100655.08
2018-06-12T21:04:29.275Z,100652.14
2018-06-12T21:06:58.003Z,100657.30
2018-06-12T21:09:26.474Z,100660.65
2018-06-12T21:11:55.105Z,100651.64
2018-06-12T21:14:23.688Z,100647.56
2018-06-12T21:16:52.274Z,100647.92
2018-06-12T21:19:20.746Z,100647.92
2018-06-12T21:21:49.337Z,100645.21
2018-06-12T21:24:17.863Z,100642.86
2018-06-12T21:26:46.486Z,100646.20
2018-06-12T21:29:15.117Z,100639.64
2018-06-12T21:31:44.113Z,100641.13
2018-06-12T21:34:12.671Z,100644.44
2018-06-12T21:36:41.519Z,100640.63
2018-06-12T21:39:09.964Z,100636.92
2018-06-12T21:41:38.498Z,100647.41
2018-06-12T21:44:08.051Z,100643.70
2018-06-12T21:46:36.668Z,100635.34
2018-06-12T21:49:05.153Z,100637.66
2018-06-12T21:51:33.596Z,100637.44
2018-06-12T21:54:02.040Z,100641.36
2018-06-12T21:56:30.574Z,100635.34
2018-06-12T21:58:59.133Z,100645.44
2018-06-12T22:01:27.744Z,100651.23
2018-06-12T22:03:57.624Z,100645.34
2018-06-12T22:06:26.249Z,100644.44
2018-06-12T22:08:54.856Z,100642.13
2018-06-12T22:11:23.432Z,100643.86
2018-06-12T22:13:51.964Z,100639.42
2018-06-12T22:16:23.280Z,100648.66
2018-06-12T22:18:52.252Z,100652.14
2018-06-12T22:21:20.847Z,100644.59
2018-06-12T22:23:49.275Z,100641.66
2018-06-12T22:26:17.826Z,100649.16
2018-06-12T22:28:46.303Z,100643.86
2018-06-12T22:31:14.865Z,100647.92
2018-06-12T22:33:43.492Z,100648.66
2018-06-12T22:36:11.932Z,100643.64
2018-06-12T22:38:40.416Z,100646.34
2018-06-12T22:41:08.946Z,100643.73
2018-06-12T22:43:37.377Z,100650.14
2018-06-12T22:46:05.961Z,100646.44
2018-06-12T22:48:34.475Z,100651.87
2018-06-12T22:51:02.952Z,100659.91
2018-06-12T22:53:31.515Z,100658.16
2018-06-12T22:55:59.992Z,100664.48
2018-06-12T22:58:28.443Z,100662.08
2018-06-12T23:00:57.007Z,100659.86
2018-06-12T23:03:25.539Z,100662.84
2018-06-12T23:05:53.995Z,100665.56
2018-06-12T23:08:22.526Z,100665.69
2018-06-12T23:10:50.948Z,100663.84
2018-06-12T23:13:19.464Z,100668.77
2018-06-12T23:15:47.912Z,100665.20
2018-06-12T23:18:16.452Z,100663.44
2018-06-12T23:20:56.232Z,100659.37
2018-06-12T23:23:24.726Z,100650.00
2018-06-12T23:25:53.268Z,100653.92
2018-06-12T23:28:21.747Z,100658.27
2018-06-12T23:30:51.215Z,100648.64
2018-06-12T23:33:19.654Z,100645.28
2018-06-12T23:35:48.287Z,100641.98
2018-06-12T23:38:16.822Z,100642.57
2018-06-12T23:40:45.378Z,100643.91
2018-06-12T23:43:14.468Z,100637.22
2018-06-12T23:45:42.987Z,100635.22
2018-06-12T23:48:11.571Z,100631.77
2018-06-12T23:50:40.058Z,100636.33
2018-06-12T23:53:08.546Z,100633.98
2018-06-12T23:55:37.013Z,100636.20
2018-06-12T23:58:05.808Z,100628.20
